createdAt,value
2018-04-22T00:01:50.443Z,16.30
2018-04-22T00:05:53.015Z,16.30
2018-04-22T00:09:55.556Z,16.20
2018-04-22T00:13:58.882Z,16.20
2018-04-22T00:18:01.530Z,16.10
2018-04-22T00:22:10.589Z,16.20
2018-04-22T00:26:13.107Z,16.10
2018-04-22T00:30:15.735Z,16.10
2018-04-22T00:34:19.999Z,16.10
2018-04-22T00:38:25.187Z,16.00
2018-04-22T00:42:27.714Z,15.90
2018-04-22T00:46:30.355Z,16.00
2018-04-22T00:50:32.870Z,15.90
2018-04-22T00:54:36.195Z,15.90
2018-04-22T00:58:38.715Z,15.80
2018-04-22T01:02:43.968Z,15.80
2018-04-22T01:06:47.482Z,15.70
2018-04-22T01:10:50.032Z,15.80
2018-04-22T01:14:53.487Z,15.70
2018-04-22T01:18:56.038Z,15.60
2018-04-22T01:23:00.248Z,15.50
2018-04-22T01:27:13.608Z,15.40
2018-04-22T01:31:16.131Z,15.40
2018-04-22T01:35:18.679Z,15.40
2018-04-22T01:39:21.203Z,15.40
2018-04-22T01:43:24.105Z,15.30
2018-04-22T01:47:28.378Z,15.30
2018-04-22T01:51:31.213Z,15.30
2018-04-22T01:55:33.736Z,15.30
2018-04-22T01:59:43.355Z,15.20
2018-04-22T02:03:45.947Z,15.20
2018-04-22T02:07:48.519Z,15.20
2018-04-22T02:11:51.039Z,15.10
2018-04-22T02:15:54.435Z,15.00
2018-04-22T02:19:56.946Z,14.90
2018-04-22T02:24:00.516Z,15.00
2018-04-22T02:28:03.030Z,15.00
2018-04-22T02:32:05.604Z,15.10
2018-04-22T02:36:08.134Z,15.10
2018-04-22T02:40:11.071Z,15.00
2018-04-22T02:44:13.600Z,15.00
2018-04-22T02:48:39.987Z,14.90
2018-04-22T02:52:43.287Z,14.90
2018-04-22T02:56:45.838Z,14.80
2018-04-22T03:00:48.363Z,14.80
2018-04-22T03:04:50.915Z,14.90
2018-04-22T03:08:53.434Z,14.80
2018-04-22T03:12:56.879Z,14.90
2018-04-22T03:16:59.409Z,14.90
2018-04-22T03:21:02.878Z,14.90
2018-04-22T03:25:05.398Z,14.90
2018-04-22T03:29:08.709Z,14.60
2018-04-22T03:33:11.227Z,14.50
2018-04-22T03:37:14.542Z,14.30
2018-04-22T03:41:17.067Z,14.20
2018-04-22T03:45:20.467Z,14.30
2018-04-22T03:49:22.982Z,14.20
2018-04-22T03:53:25.547Z,14.20
2018-04-22T03:57:28.062Z,14.10
2018-04-22T04:01:30.706Z,14.00
2018-04-22T04:05:33.222Z,14.20
2018-04-22T04:09:36.148Z,14.10
2018-04-22T04:13:38.676Z,14.20
2018-04-22T04:17:41.222Z,14.20
2018-04-22T04:21:55.400Z,14.10
2018-04-22T04:26:10.743Z,14.00
2018-04-22T04:30:13.279Z,13.80
2018-04-22T04:34:15.834Z,13.80
2018-04-22T04:38:19.131Z,13.80
2018-04-22T04:42:21.688Z,13.70
2018-04-22T04:46:25.151Z,13.90
2018-04-22T04:50:27.702Z,13.90
2018-04-22T04:54:31.175Z,13.80
2018-04-22T04:58:33.732Z,13.90
2018-04-22T05:02:37.039Z,13.90
2018-04-22T05:06:39.596Z,13.90
2018-04-22T05:10:44.143Z,13.80
2018-04-22T05:14:46.687Z,13.80
2018-04-22T05:18:49.202Z,13.90
2018-04-22T05:22:51.746Z,14.10
2018-04-22T05:26:56.232Z,14.30
2018-04-22T05:30:58.778Z,14.20
2018-04-22T05:35:02.066Z,14.20
2018-04-22T05:39:06.635Z,14.20
2018-04-22T05:43:09.194Z,14.40
2018-04-22T05:47:11.838Z,14.40
2018-04-22T05:51:16.295Z,14.60
2018-04-22T05:55:19.046Z,14.80
2018-04-22T05:59:21.699Z,14.90
2018-04-22T06:03:24.254Z,15.30
2018-04-22T06:07:27.538Z,15.60
2018-04-22T06:11:34.970Z,15.50
2018-04-22T06:15:37.490Z,15.70
2018-04-22T06:19:46.014Z,15.70
2018-04-22T06:23:48.538Z,16.00
2018-04-22T06:27:51.078Z,16.30
2018-04-22T06:31:55.570Z,16.30
2018-04-22T06:35:58.118Z,16.20
2018-04-22T06:40:03.330Z,16.50
2018-04-22T06:44:05.923Z,16.40
2018-04-22T06:48:10.391Z,16.60
2018-04-22T06:52:14.263Z,17.00
2018-04-22T06:56:16.808Z,17.00
2018-04-22T07:00:19.667Z,17.20
2018-04-22T07:04:28.378Z,17.30
2018-04-22T07:08:31.855Z,17.50
2018-04-22T07:12:43.515Z,20.40
2018-04-22T07:16:46.064Z,20.30
2018-04-22T07:20:48.619Z,22.00
2018-04-22T07:24:56.094Z,23.00
2018-04-22T07:28:58.630Z,23.70
2018-04-22T07:33:01.966Z,24.50
2018-04-22T07:37:04.505Z,24.50
2018-04-22T07:41:07.122Z,25.00
2018-04-22T07:45:10.061Z,25.80
2018-04-22T07:49:13.510Z,26.10
2018-04-22T07:53:18.726Z,27.80
2018-04-22T07:57:21.274Z,27.70
2018-04-22T08:01:28.266Z,28.10
2018-04-22T08:05:30.830Z,28.00
2018-04-22T08:09:39.667Z,28.90
2018-04-22T08:13:47.468Z,28.50
2018-04-22T08:17:49.989Z,29.20
2018-04-22T08:21:59.734Z,28.90
2018-04-22T08:26:08.997Z,28.80
2018-04-22T08:30:12.537Z,29.20
2018-04-22T08:34:19.294Z,29.10
2018-04-22T08:38:21.851Z,29.40
2018-04-22T08:42:32.166Z,29.90
2018-04-22T08:46:35.775Z,30.10
2018-04-22T08:50:39.122Z,29.30
2018-04-22T08:54:58.062Z,29.20
2018-04-22T08:59:00.594Z,29.70
2018-04-22T09:03:04.123Z,29.00
2018-04-22T09:07:06.653Z,29.00
2018-04-22T09:11:09.471Z,29.00
2018-04-22T09:15:11.994Z,28.90
2018-04-22T09:19:14.545Z,29.00
2018-04-22T09:23:21.228Z,29.40
2018-04-22T09:27:31.826Z,29.90
2018-04-22T09:31:34.351Z,29.70
2018-04-22T09:35:37.876Z,29.90
2018-04-22T09:39:40.405Z,30.30
2018-04-22T09:43:43.719Z,30.30
2018-04-22T09:47:47.094Z,29.90
2018-04-22T09:51:49.646Z,29.80
2018-04-22T09:55:52.947Z,29.60
2018-04-22T09:59:59.246Z,29.50
2018-04-22T10:04:01.757Z,29.00
2018-04-22T10:08:09.888Z,28.80
2018-04-22T10:12:12.424Z,28.70
2018-04-22T10:16:29.850Z,28.10
2018-04-22T10:20:35.723Z,28.00
2018-04-22T10:24:38.270Z,28.60
2018-04-22T10:28:41.570Z,29.10
2018-04-22T10:32:44.116Z,29.10
2018-04-22T10:36:52.172Z,29.10
2018-04-22T10:40:55.803Z,28.60
2018-04-22T10:44:58.312Z,28.60
2018-04-22T10:49:18.888Z,28.40
2018-04-22T10:53:22.215Z,28.20
2018-04-22T10:57:25.518Z,28.50
2018-04-22T11:01:37.799Z,28.40
2018-04-22T11:05:40.354Z,28.40
2018-04-22T11:09:42.901Z,28.60
2018-04-22T11:13:45.473Z,28.60
2018-04-22T11:17:47.990Z,28.50
2018-04-22T11:21:51.310Z,28.50
2018-04-22T11:25:53.818Z,28.50
2018-04-22T11:30:08.966Z,28.60
2018-04-22T11:34:11.494Z,28.60
2018-04-22T11:38:25.196Z,28.80
2018-04-22T11:42:33.721Z,28.70
2018-04-22T11:46:36.344Z,28.70
2018-04-22T11:50:43.723Z,28.60
2018-04-22T11:54:47.371Z,28.50
2018-04-22T11:58:49.891Z,28.40
2018-04-22T12:02:52.871Z,28.00
2018-04-22T12:06:55.387Z,27.90
2018-04-22T12:10:58.085Z,27.90
2018-04-22T12:15:00.606Z,28.20
2018-04-22T12:19:03.146Z,28.30
2018-04-22T12:23:07.368Z,28.70
2018-04-22T12:27:10.056Z,28.60
2018-04-22T12:31:12.592Z,28.60
2018-04-22T12:35:15.569Z,28.50
2018-04-22T12:39:18.101Z,28.60
2018-04-22T12:43:20.641Z,28.50
2018-04-22T12:47:39.078Z,28.20
2018-04-22T12:51:41.980Z,28.10
2018-04-22T12:55:44.528Z,28.20
2018-04-22T12:59:47.098Z,28.00
2018-04-22T13:03:50.633Z,27.60
2018-04-22T13:07:53.171Z,27.40
2018-04-22T13:11:56.510Z,26.80
2018-04-22T13:16:04.004Z,25.70
2018-04-22T13:20:14.773Z,25.00
2018-04-22T13:24:17.379Z,24.90
2018-04-22T13:28:24.416Z,24.30
2018-04-22T13:32:27.001Z,23.60
2018-04-22T13:36:41.563Z,23.20
2018-04-22T13:40:45.067Z,23.20
2018-04-22T13:44:47.685Z,23.50
2018-04-22T13:48:53.759Z,23.80
2018-04-22T13:52:57.309Z,24.00
2018-04-22T13:57:01.884Z,24.00
2018-04-22T14:01:04.463Z,24.10
2018-04-22T14:05:07.051Z,24.30
2018-04-22T14:09:10.395Z,24.60
2018-04-22T14:13:13.041Z,24.50
2018-04-22T14:17:17.521Z,24.70
2018-04-22T14:21:24.572Z,24.90
2018-04-22T14:25:32.995Z,25.10
2018-04-22T14:29:36.514Z,25.30
2018-04-22T14:33:39.798Z,25.60
2018-04-22T14:37:43.398Z,25.50
2018-04-22T14:41:45.918Z,25.90
2018-04-22T14:46:04.200Z,26.00
2018-04-22T14:50:06.743Z,26.00
2018-04-22T14:54:09.294Z,26.30
2018-04-22T14:58:26.003Z,26.10
2018-04-22T15:02:35.934Z,26.20
2018-04-22T15:06:49.731Z,26.10
2018-04-22T15:10:52.692Z,26.20
2018-04-22T15:14:55.229Z,26.30
2018-04-22T15:19:14.433Z,26.40
2018-04-22T15:23:36.003Z,26.30
2018-04-22T15:27:46.136Z,26.10
2018-04-22T15:31:59.142Z,26.00
2018-04-22T15:40:31.521Z,25.80
2018-04-22T15:44:34.850Z,25.80
2018-04-22T15:48:39.126Z,25.60
2018-04-22T15:52:56.655Z,25.50
2018-04-22T15:57:01.139Z,25.50
2018-04-22T16:01:05.906Z,25.50
2018-04-22T16:05:22.062Z,25.70
2018-04-22T16:09:39.663Z,25.60
2018-04-22T16:13:52.839Z,25.60
2018-04-22T16:17:55.387Z,25.70
2018-04-22T16:21:57.921Z,25.80
2018-04-22T16:26:02.507Z,25.60
2018-04-22T16:30:12.243Z,25.30
2018-04-22T16:34:23.054Z,25.00
2018-04-22T16:38:25.564Z,24.90
2018-04-22T16:42:28.124Z,24.70
2018-04-22T16:46:31.615Z,24.50
2018-04-22T16:50:51.286Z,24.40
2018-04-22T16:54:54.572Z,24.40
2018-04-22T16:58:57.121Z,24.40
2018-04-22T17:03:00.404Z,24.20
2018-04-22T17:07:03.933Z,24.20
2018-04-22T17:11:07.466Z,24.20
2018-04-22T17:19:38.246Z,24.00
2018-04-22T17:23:41.815Z,23.90
2018-04-22T17:27:46.356Z,23.90
2018-04-22T17:31:49.028Z,23.80
2018-04-22T17:35:52.352Z,23.70
2018-04-22T17:39:54.895Z,23.60
2018-04-22T17:43:57.407Z,23.70
2018-04-22T17:48:05.539Z,23.50
2018-04-22T17:52:08.055Z,23.40
2018-04-22T17:56:13.632Z,23.40
2018-04-22T18:00:16.149Z,23.20
2018-04-22T18:04:18.701Z,23.10
2018-04-22T18:08:21.214Z,23.10
2018-04-22T18:12:38.722Z,23.10
2018-04-22T18:17:02.807Z,23.00
2018-04-22T18:21:05.350Z,22.90
2018-04-22T18:25:07.871Z,22.90
2018-04-22T18:29:20.505Z,22.90
2018-04-22T18:33:23.023Z,22.80
2018-04-22T18:37:25.575Z,22.70
2018-04-22T18:41:28.087Z,22.70
2018-04-22T18:45:31.393Z,22.50
2018-04-22T18:49:33.906Z,22.40
2018-04-22T18:53:36.823Z,22.50
2018-04-22T18:57:40.103Z,22.40
2018-04-22T19:01:43.075Z,22.40
2018-04-22T19:05:46.355Z,22.20
2018-04-22T19:09:48.891Z,22.20
2018-04-22T19:13:51.411Z,22.20
2018-04-22T19:17:57.979Z,22.10
2018-04-22T19:22:00.498Z,22.10
2018-04-22T19:26:03.430Z,22.00
2018-04-22T19:30:06.810Z,22.00
2018-04-22T19:34:09.347Z,21.90
2018-04-22T19:38:25.576Z,21.90
2018-04-22T19:42:29.902Z,21.70
2018-04-22T19:46:32.414Z,21.60
2018-04-22T19:50:34.966Z,21.50
2018-04-22T19:54:37.487Z,21.40
2018-04-22T19:58:57.462Z,21.30
2018-04-22T20:03:00.820Z,21.30
2018-04-22T20:07:04.662Z,21.20
2018-04-22T20:11:07.174Z,21.30
2018-04-22T20:15:09.735Z,21.20
2018-04-22T20:19:19.215Z,21.20
2018-04-22T20:23:22.528Z,21.20
2018-04-22T20:27:25.990Z,21.20
2018-04-22T20:31:28.544Z,21.20
2018-04-22T20:35:31.068Z,21.10
2018-04-22T20:39:36.302Z,21.00
2018-04-22T20:43:38.907Z,21.00
2018-04-22T20:47:41.856Z,20.90
2018-04-22T20:51:45.130Z,20.90
2018-04-22T20:55:47.669Z,20.80
2018-04-22T20:59:50.195Z,20.90
2018-04-22T21:03:53.514Z,20.80
2018-04-22T21:07:56.803Z,20.80
2018-04-22T21:11:59.339Z,20.70
2018-04-22T21:16:02.624Z,20.70
2018-04-22T21:24:35.474Z,20.50
2018-04-22T21:28:38.024Z,20.50
2018-04-22T21:32:41.315Z,20.50
2018-04-22T21:36:43.859Z,20.40
2018-04-22T21:40:46.472Z,20.40
2018-04-22T21:44:51.743Z,20.20
2018-04-22T21:48:55.023Z,20.10
2018-04-22T21:53:01.018Z,20.00
2018-04-22T21:57:04.098Z,20.00
2018-04-22T22:01:06.701Z,19.90
2018-04-22T22:05:09.286Z,19.80
2018-04-22T22:09:12.603Z,19.60
2018-04-22T22:13:20.028Z,19.40
2018-04-22T22:17:22.638Z,19.30
2018-04-22T22:21:27.904Z,19.10
2018-04-22T22:25:31.690Z,19.00
2018-04-22T22:29:34.285Z,19.00
2018-04-22T22:33:37.831Z,19.00
2018-04-22T22:37:45.131Z,19.00
2018-04-22T22:41:47.764Z,18.90
2018-04-22T22:45:50.274Z,18.80
2018-04-22T22:49:52.913Z,18.70
2018-04-22T22:53:56.211Z,18.50
2018-04-22T22:57:59.046Z,18.50
2018-04-22T23:02:01.570Z,18.40
2018-04-22T23:06:04.126Z,18.40
2018-04-22T23:10:06.639Z,18.40
2018-04-22T23:14:09.182Z,18.40
2018-04-22T23:18:11.700Z,18.30
2018-04-22T23:22:20.186Z,18.10
2018-04-22T23:26:22.695Z,18.20
2018-04-22T23:30:25.242Z,18.20
2018-04-22T23:34:27.766Z,18.00
2018-04-22T23:38:32.255Z,17.90
2018-04-22T23:42:34.765Z,17.80
2018-04-22T23:46:37.306Z,17.70
2018-04-22T23:50:39.857Z,17.70
2018-04-22T23:54:42.390Z,17.60
2018-04-22T23:58:44.911Z,17.40
